createdAt,value
2019-04-07T00:00:15.335Z,78.60
2019-04-07T00:02:42.592Z,78.51
2019-04-07T00:05:14.174Z,78.44
2019-04-07T00:07:39.387Z,78.46
2019-04-07T00:10:08.333Z,78.38
2019-04-07T00:12:37.905Z,78.00
2019-04-07T00:15:06.001Z,78.00
2019-04-07T00:17:33.234Z,78.04
2019-04-07T00:20:00.664Z,77.94
2019-04-07T00:22:28.038Z,77.91
2019-04-07T00:24:55.614Z,77.99
2019-04-07T00:27:23.031Z,77.96
2019-04-07T00:29:50.833Z,78.00
2019-04-07T00:32:18.256Z,78.16
2019-04-07T00:34:45.539Z,78.01
2019-04-07T00:37:12.890Z,77.79
2019-04-07T00:39:40.209Z,77.81
2019-04-07T00:42:07.553Z,77.80
2019-04-07T00:44:35.375Z,77.70
2019-04-07T00:47:03.106Z,77.78
2019-04-07T00:49:31.128Z,77.94
2019-04-07T00:51:59.825Z,77.80
2019-04-07T00:54:27.034Z,77.89
2019-04-07T00:56:54.492Z,77.97
2019-04-07T00:59:21.716Z,77.99
2019-04-07T01:01:48.912Z,78.02
2019-04-07T01:04:16.457Z,77.84
2019-04-07T01:06:43.802Z,77.79
2019-04-07T01:09:11.428Z,77.67
2019-04-07T01:11:38.797Z,77.72
2019-04-07T01:14:07.004Z,77.59
2019-04-07T01:16:34.435Z,77.68
2019-04-07T01:19:02.293Z,77.85
2019-04-07T01:21:30.304Z,77.97
2019-04-07T01:23:57.864Z,77.52
2019-04-07T01:26:25.259Z,78.17
2019-04-07T01:28:54.529Z,78.48
2019-04-07T01:31:22.474Z,78.38
2019-04-07T01:33:49.806Z,78.22
2019-04-07T01:36:17.232Z,78.16
2019-04-07T01:38:44.561Z,78.02
2019-04-07T01:41:24.030Z,78.39
2019-04-07T01:44:00.142Z,78.17
2019-04-07T01:46:37.076Z,77.90
2019-04-07T01:49:13.476Z,77.87
2019-04-07T01:51:46.673Z,77.71
2019-04-07T01:54:32.002Z,77.74
2019-04-07T01:57:15.931Z,77.51
2019-04-07T02:00:14.668Z,77.47
2019-04-07T02:02:56.897Z,77.52
2019-04-07T02:06:03.877Z,77.48
2019-04-07T02:08:38.589Z,77.53
2019-04-07T02:11:31.728Z,77.92
2019-04-07T02:14:19.301Z,77.80
2019-04-07T02:16:59.345Z,77.62
2019-04-07T02:19:49.930Z,77.51
2019-04-07T02:22:42.718Z,77.15
2019-04-07T02:25:26.401Z,77.11
2019-04-07T02:28:12.177Z,76.92
2019-04-07T02:31:00.656Z,77.05
2019-04-07T02:33:51.090Z,76.94
2019-04-07T02:36:30.281Z,76.75
2019-04-07T02:39:13.131Z,76.74
2019-04-07T02:41:52.015Z,76.72
2019-04-07T02:44:53.946Z,76.78
2019-04-07T02:47:39.443Z,76.64
2019-04-07T02:50:26.311Z,76.59
2019-04-07T02:53:13.490Z,76.58
2019-04-07T02:56:01.837Z,76.54
2019-04-07T02:58:45.205Z,76.48
2019-04-07T03:01:35.148Z,76.44
2019-04-07T03:04:22.967Z,76.34
2019-04-07T03:07:25.113Z,76.32
2019-04-07T03:10:31.102Z,76.18
2019-04-07T03:13:24.306Z,76.24
2019-04-07T03:16:12.528Z,76.08
2019-04-07T03:18:44.502Z,76.20
2019-04-07T03:21:28.304Z,76.17
2019-04-07T03:24:08.047Z,76.06
2019-04-07T03:26:55.595Z,76.25
2019-04-07T03:29:45.347Z,76.10
2019-04-07T03:32:37.514Z,76.16
2019-04-07T03:35:34.399Z,76.15
2019-04-07T03:38:33.627Z,76.19
2019-04-07T03:41:19.705Z,76.19
2019-04-07T03:43:55.055Z,76.16
2019-04-07T03:46:45.779Z,76.22
2019-04-07T03:49:50.988Z,76.10
2019-04-07T03:52:28.749Z,75.98
2019-04-07T03:55:11.806Z,75.91
2019-04-07T03:57:53.447Z,75.97
2019-04-07T04:01:25.783Z,75.86
2019-04-07T04:04:13.738Z,75.77
2019-04-07T04:07:00.120Z,75.70
2019-04-07T04:09:47.603Z,75.77
2019-04-07T04:12:20.063Z,75.98
2019-04-07T04:15:00.559Z,75.85
2019-04-07T04:17:28.990Z,75.78
2019-04-07T04:19:56.236Z,75.78
2019-04-07T04:22:23.461Z,75.68
2019-04-07T04:24:51.776Z,75.66
2019-04-07T04:27:19.012Z,75.54
2019-04-07T04:29:46.563Z,75.46
2019-04-07T04:32:13.945Z,75.40
2019-04-07T04:34:41.253Z,75.54
2019-04-07T04:37:09.429Z,75.51
2019-04-07T04:39:37.494Z,75.46
2019-04-07T04:42:05.538Z,75.47
2019-04-07T04:44:32.988Z,75.54
2019-04-07T04:47:01.616Z,75.45
2019-04-07T04:49:29.687Z,75.37
2019-04-07T04:51:57.150Z,75.69
2019-04-07T04:54:24.904Z,75.73
2019-04-07T04:56:53.529Z,75.63
2019-04-07T04:59:21.656Z,75.59
2019-04-07T05:01:49.055Z,75.54
2019-04-07T05:04:16.309Z,75.72
2019-04-07T05:06:43.654Z,75.79
2019-04-07T05:09:11.054Z,75.81
2019-04-07T05:11:38.339Z,75.84
2019-04-07T05:14:05.917Z,75.83
2019-04-07T05:16:33.281Z,75.86
2019-04-07T05:19:00.759Z,76.43
2019-04-07T05:21:28.213Z,76.43
2019-04-07T05:23:56.164Z,76.93
2019-04-07T05:26:24.037Z,76.84
2019-04-07T05:28:51.462Z,76.67
2019-04-07T05:31:18.778Z,76.61
2019-04-07T05:33:46.489Z,77.03
2019-04-07T05:36:13.815Z,77.14
2019-04-07T05:38:41.111Z,76.64
2019-04-07T05:41:08.319Z,76.26
2019-04-07T05:43:35.581Z,76.65
2019-04-07T05:46:05.861Z,76.26
2019-04-07T05:48:32.654Z,75.88
2019-04-07T05:51:01.058Z,75.79
2019-04-07T05:53:28.657Z,75.74
2019-04-07T05:55:56.281Z,75.72
2019-04-07T05:58:24.185Z,75.26
2019-04-07T06:00:51.687Z,74.92
2019-04-07T06:03:20.316Z,74.62
2019-04-07T06:05:50.810Z,74.50
2019-04-07T06:08:24.629Z,74.12
2019-04-07T06:10:48.927Z,73.01
2019-04-07T06:13:17.467Z,73.01
2019-04-07T06:15:45.718Z,73.04
2019-04-07T06:18:13.778Z,73.01
2019-04-07T06:20:44.106Z,72.73
2019-04-07T06:23:10.309Z,72.48
2019-04-07T06:25:41.535Z,72.11
2019-04-07T06:28:07.191Z,71.76
2019-04-07T06:30:36.201Z,71.47
2019-04-07T06:33:06.120Z,70.86
2019-04-07T06:35:33.580Z,70.19
2019-04-07T06:38:05.240Z,70.05
2019-04-07T06:40:30.623Z,69.79
2019-04-07T06:42:57.951Z,69.83
2019-04-07T06:45:30.596Z,68.88
2019-04-07T06:48:01.530Z,69.07
2019-04-07T06:50:56.627Z,69.07
2019-04-07T06:53:46.785Z,68.68
2019-04-07T06:56:46.775Z,68.71
2019-04-07T06:59:26.131Z,68.56
2019-04-07T07:02:15.704Z,68.53
2019-04-07T07:05:02.984Z,68.53
2019-04-07T07:07:53.106Z,68.14
2019-04-07T07:10:39.951Z,68.50
2019-04-07T07:13:29.252Z,67.47
2019-04-07T07:16:20.734Z,67.47
2019-04-07T07:19:06.412Z,67.98
2019-04-07T07:22:13.141Z,67.45
2019-04-07T07:24:38.101Z,67.17
2019-04-07T07:27:09.352Z,66.82
2019-04-07T07:29:36.217Z,66.70
2019-04-07T07:32:04.859Z,66.70
2019-04-07T07:34:32.383Z,65.92
2019-04-07T07:36:59.989Z,65.25
2019-04-07T07:39:27.273Z,64.82
2019-04-07T07:41:55.095Z,64.48
2019-04-07T07:44:22.428Z,63.67
2019-04-07T07:46:51.500Z,63.59
2019-04-07T07:49:19.195Z,63.82
2019-04-07T07:51:48.421Z,63.65
2019-04-07T07:54:16.179Z,63.43
2019-04-07T07:56:49.421Z,62.59
2019-04-07T07:59:13.430Z,62.66
2019-04-07T08:01:44.281Z,62.78
2019-04-07T08:04:09.824Z,62.02
2019-04-07T08:06:40.191Z,62.23
2019-04-07T08:09:12.888Z,62.19
2019-04-07T08:11:37.276Z,62.59
2019-04-07T08:14:04.556Z,62.06
2019-04-07T08:16:32.550Z,61.53
2019-04-07T08:19:01.305Z,60.83
2019-04-07T08:21:29.137Z,60.38
2019-04-07T08:23:56.807Z,60.25
2019-04-07T08:26:25.148Z,59.44
2019-04-07T08:28:53.379Z,59.88
2019-04-07T08:31:21.541Z,58.91
2019-04-07T08:33:51.240Z,59.10
2019-04-07T08:36:18.322Z,58.48
2019-04-07T08:38:45.629Z,59.16
2019-04-07T08:41:15.481Z,58.30
2019-04-07T08:43:42.099Z,58.64
2019-04-07T08:46:09.943Z,58.86
2019-04-07T08:48:37.433Z,56.34
2019-04-07T08:51:04.786Z,55.77
2019-04-07T08:53:32.012Z,56.50
2019-04-07T08:55:59.882Z,55.66
2019-04-07T08:58:28.983Z,55.11
2019-04-07T09:00:57.359Z,54.42
2019-04-07T09:03:24.681Z,55.65
2019-04-07T09:05:57.403Z,54.99
2019-04-07T09:08:24.962Z,55.07
2019-04-07T09:11:06.723Z,54.08
2019-04-07T09:13:34.295Z,54.52
2019-04-07T09:16:24.680Z,54.82
2019-04-07T09:19:09.594Z,54.77
2019-04-07T09:22:08.311Z,55.37
2019-04-07T09:25:06.606Z,55.90
2019-04-07T09:27:49.321Z,55.67
2019-04-07T09:30:48.892Z,52.74
2019-04-07T09:33:42.121Z,52.88
2019-04-07T09:36:18.016Z,53.59
2019-04-07T09:38:57.036Z,52.74
2019-04-07T09:41:52.710Z,53.78
2019-04-07T09:44:40.209Z,52.84
2019-04-07T09:47:21.488Z,53.37
2019-04-07T09:50:14.249Z,54.40
2019-04-07T09:53:03.914Z,54.41
2019-04-07T09:55:41.112Z,53.42
2019-04-07T09:58:21.667Z,51.95
2019-04-07T10:01:06.709Z,50.58
2019-04-07T10:03:43.687Z,51.46
2019-04-07T10:06:25.744Z,52.13
2019-04-07T10:09:05.648Z,53.67
2019-04-07T10:11:57.905Z,54.42
2019-04-07T10:14:48.836Z,50.24
2019-04-07T10:17:35.725Z,51.48
2019-04-07T10:20:32.573Z,50.40
2019-04-07T10:23:16.275Z,51.10
2019-04-07T10:25:56.198Z,52.81
2019-04-07T10:28:43.461Z,51.71
2019-04-07T10:31:43.247Z,51.42
2019-04-07T10:34:31.035Z,51.54
2019-04-07T10:37:22.043Z,51.75
2019-04-07T10:40:16.713Z,52.56
2019-04-07T10:42:55.533Z,53.52
2019-04-07T10:45:38.288Z,52.57
2019-04-07T10:48:28.606Z,52.97
2019-04-07T10:51:10.448Z,54.33
2019-04-07T10:53:57.328Z,53.58
2019-04-07T10:56:56.386Z,55.34
2019-04-07T10:59:53.236Z,53.67
2019-04-07T11:02:29.413Z,54.25
2019-04-07T11:05:16.257Z,54.10
2019-04-07T11:08:09.091Z,53.32
2019-04-07T11:11:01.655Z,53.99
2019-04-07T11:13:49.996Z,54.17
2019-04-07T11:16:46.301Z,53.99
2019-04-07T11:19:53.025Z,53.75
2019-04-07T11:22:38.307Z,54.38
2019-04-07T11:25:34.741Z,52.67
2019-04-07T11:28:20.843Z,53.54
2019-04-07T11:30:57.444Z,52.30
2019-04-07T11:33:47.063Z,52.02
2019-04-07T11:36:23.475Z,53.38
2019-04-07T11:38:59.417Z,51.48
2019-04-07T11:42:05.733Z,54.90
2019-04-07T11:44:55.469Z,52.26
2019-04-07T11:47:42.769Z,52.15
2019-04-07T11:50:32.706Z,50.19
2019-04-07T11:53:18.344Z,51.04
2019-04-07T11:56:23.950Z,50.52
2019-04-07T11:59:22.794Z,53.04
2019-04-07T12:02:12.607Z,52.55
2019-04-07T12:05:08.248Z,52.67
2019-04-07T12:08:10.464Z,52.48
2019-04-07T12:11:06.604Z,52.23
2019-04-07T12:13:42.889Z,50.84
2019-04-07T12:16:35.097Z,51.10
2019-04-07T12:19:23.900Z,49.06
2019-04-07T12:22:05.539Z,45.89
2019-04-07T12:24:50.506Z,46.48
2019-04-07T12:27:47.137Z,46.44
2019-04-07T12:30:36.931Z,46.12
2019-04-07T12:33:29.664Z,46.28
2019-04-07T12:36:30.228Z,45.84
2019-04-07T12:39:23.044Z,46.59
2019-04-07T12:42:07.067Z,45.46
2019-04-07T12:44:53.823Z,45.00
2019-04-07T12:47:39.773Z,44.58
2019-04-07T12:50:39.220Z,45.73
2019-04-07T12:53:33.476Z,46.96
2019-04-07T12:56:31.539Z,45.53
2019-04-07T12:59:15.737Z,48.10
2019-04-07T13:01:50.990Z,44.88
2019-04-07T13:04:40.784Z,44.04
2019-04-07T13:07:37.612Z,43.97
2019-04-07T13:10:14.372Z,43.62
2019-04-07T13:12:55.823Z,38.09
2019-04-07T13:15:38.924Z,36.73
2019-04-07T13:18:37.779Z,34.98
2019-04-07T13:21:24.567Z,34.69
2019-04-07T13:24:12.700Z,32.18
2019-04-07T13:27:14.154Z,33.93
2019-04-07T13:30:04.114Z,36.57
2019-04-07T13:32:57.550Z,35.72
2019-04-07T13:35:49.263Z,35.09
2019-04-07T13:38:22.961Z,38.22
2019-04-07T13:41:12.263Z,34.33
2019-04-07T13:44:08.873Z,38.10
2019-04-07T13:47:01.868Z,33.32
2019-04-07T13:49:41.331Z,35.13
2019-04-07T13:52:19.325Z,33.95
2019-04-07T13:54:54.910Z,36.25
2019-04-07T13:57:42.816Z,34.68
2019-04-07T14:00:18.473Z,35.08
2019-04-07T14:02:56.096Z,32.53
2019-04-07T14:05:38.840Z,33.03
2019-04-07T14:08:25.808Z,32.81
2019-04-07T14:11:11.053Z,34.67
2019-04-07T14:13:57.671Z,49.82
2019-04-07T14:16:43.250Z,51.92
2019-04-07T14:19:32.063Z,54.15
2019-04-07T14:22:14.458Z,54.01
2019-04-07T14:24:53.758Z,54.65
2019-04-07T14:27:41.385Z,54.59
2019-04-07T14:30:35.306Z,54.49
2019-04-07T14:33:34.058Z,54.08
2019-04-07T14:36:23.823Z,51.93
2019-04-07T14:39:17.709Z,54.39
2019-04-07T14:42:07.608Z,54.35
2019-04-07T14:44:48.692Z,51.95
2019-04-07T14:47:31.291Z,53.24
2019-04-07T14:50:17.118Z,53.83
2019-04-07T14:53:07.699Z,52.64
2019-04-07T14:56:00.190Z,53.36
2019-04-07T14:58:48.500Z,53.08
2019-04-07T15:01:36.821Z,55.17
2019-04-07T15:04:05.176Z,56.10
2019-04-07T15:06:35.074Z,57.01
2019-04-07T15:09:13.597Z,57.19
2019-04-07T15:11:51.264Z,57.97
2019-04-07T15:14:19.211Z,57.78
2019-04-07T15:16:47.850Z,58.25
2019-04-07T15:19:17.846Z,58.47
2019-04-07T15:21:45.285Z,58.43
2019-04-07T15:24:13.274Z,58.87
2019-04-07T15:26:40.613Z,58.00
2019-04-07T15:29:10.606Z,59.12
2019-04-07T15:31:37.455Z,58.62
2019-04-07T15:34:08.572Z,58.84
2019-04-07T15:36:33.990Z,58.89
2019-04-07T15:39:01.299Z,58.41
2019-04-07T15:41:28.535Z,59.51
2019-04-07T15:43:55.827Z,58.87
2019-04-07T15:46:23.625Z,59.36
2019-04-07T15:48:54.283Z,59.29
2019-04-07T15:51:20.182Z,59.84
2019-04-07T15:53:51.330Z,60.31
2019-04-07T15:56:18.416Z,60.48
2019-04-07T15:58:46.418Z,60.34
2019-04-07T16:01:13.927Z,59.77
2019-04-07T16:03:41.926Z,60.03
2019-04-07T16:06:09.757Z,59.09
2019-04-07T16:08:39.311Z,58.33
2019-04-07T16:11:07.020Z,58.48
2019-04-07T16:13:34.348Z,59.61
2019-04-07T16:16:02.652Z,59.07
2019-04-07T16:18:30.087Z,58.57
2019-04-07T16:20:58.022Z,58.41
2019-04-07T16:23:26.137Z,59.05
2019-04-07T16:25:54.951Z,59.79
2019-04-07T16:28:22.870Z,60.33
2019-04-07T16:30:52.041Z,60.31
2019-04-07T16:33:19.523Z,60.25
2019-04-07T16:35:51.941Z,60.43
2019-04-07T16:38:16.395Z,61.13
2019-04-07T16:40:44.630Z,61.19
2019-04-07T16:43:16.129Z,61.25
2019-04-07T16:45:44.135Z,61.75
2019-04-07T16:48:10.828Z,61.74
2019-04-07T16:50:38.237Z,62.13
2019-04-07T16:53:07.576Z,62.38
2019-04-07T16:55:41.806Z,62.21
2019-04-07T16:58:09.663Z,62.13
2019-04-07T17:00:38.230Z,62.29
2019-04-07T17:03:07.730Z,61.98
2019-04-07T17:05:35.485Z,62.02
2019-04-07T17:08:03.816Z,61.40
2019-04-07T17:10:34.139Z,61.68
2019-04-07T17:13:02.813Z,62.06
2019-04-07T17:15:29.675Z,62.09
2019-04-07T17:17:57.036Z,62.36
2019-04-07T17:20:27.187Z,62.10
2019-04-07T17:22:54.150Z,62.25
2019-04-07T17:25:21.695Z,62.59
2019-04-07T17:27:49.786Z,62.43
2019-04-07T17:30:18.396Z,62.38
2019-04-07T17:32:45.884Z,62.86
2019-04-07T17:35:17.192Z,63.12
2019-04-07T17:37:43.798Z,63.21
2019-04-07T17:40:14.730Z,63.51
2019-04-07T17:42:45.058Z,63.81
2019-04-07T17:45:43.109Z,64.14
2019-04-07T17:48:53.321Z,64.25
2019-04-07T17:51:40.370Z,64.63
2019-04-07T17:54:36.543Z,65.00
2019-04-07T17:57:12.015Z,64.85
2019-04-07T17:59:58.270Z,65.16
2019-04-07T18:02:54.865Z,65.41
2019-04-07T18:05:32.416Z,65.14
2019-04-07T18:08:19.893Z,65.29
2019-04-07T18:11:00.987Z,65.34
2019-04-07T18:13:51.587Z,65.67
2019-04-07T18:16:46.110Z,65.72
2019-04-07T18:19:34.830Z,66.06
2019-04-07T18:22:23.523Z,66.48
2019-04-07T18:25:03.728Z,67.83
2019-04-07T18:27:53.333Z,67.50
2019-04-07T18:30:47.233Z,67.64
2019-04-07T18:33:25.388Z,68.03
2019-04-07T18:36:07.009Z,68.79
2019-04-07T18:39:09.861Z,68.62
2019-04-07T18:42:11.416Z,68.54
2019-04-07T18:45:04.058Z,68.53
2019-04-07T18:47:48.332Z,70.01
2019-04-07T18:50:45.423Z,70.23
2019-04-07T18:53:30.739Z,70.64
2019-04-07T18:56:27.146Z,70.02
2019-04-07T18:59:32.008Z,70.27
2019-04-07T19:02:24.867Z,70.80
2019-04-07T19:05:05.086Z,70.69
2019-04-07T19:07:59.522Z,70.80
2019-04-07T19:11:12.361Z,70.96
2019-04-07T19:14:01.814Z,71.35
2019-04-07T19:16:47.099Z,71.82
2019-04-07T19:19:34.056Z,71.24
2019-04-07T19:22:15.872Z,71.47
2019-04-07T19:25:21.452Z,71.96
2019-04-07T19:28:11.460Z,71.96
2019-04-07T19:31:10.735Z,71.21
2019-04-07T19:34:16.180Z,71.27
2019-04-07T19:36:50.043Z,71.05
2019-04-07T19:39:35.242Z,70.83
2019-04-07T19:42:20.615Z,70.97
2019-04-07T19:45:11.191Z,71.37
2019-04-07T19:47:55.238Z,71.22
2019-04-07T19:50:56.338Z,70.75
2019-04-07T19:53:43.294Z,70.75
2019-04-07T19:56:19.256Z,71.36
2019-04-07T19:59:08.304Z,71.09
2019-04-07T20:02:09.631Z,70.85
2019-04-07T20:04:55.064Z,71.09
2019-04-07T20:07:40.441Z,71.05
2019-04-07T20:10:30.708Z,71.11
2019-04-07T20:13:19.858Z,70.92
2019-04-07T20:15:59.189Z,71.28
2019-04-07T20:18:45.923Z,71.69
2019-04-07T20:21:49.358Z,71.66
2019-04-07T20:24:20.371Z,71.42
2019-04-07T20:27:07.183Z,72.56
2019-04-07T20:30:00.528Z,72.30
2019-04-07T20:32:35.255Z,72.29
2019-04-07T20:35:21.784Z,73.57
2019-04-07T20:38:04.778Z,73.44
2019-04-07T20:40:44.438Z,73.13
2019-04-07T20:43:33.010Z,73.60
2019-04-07T20:46:29.531Z,73.83
2019-04-07T20:49:35.768Z,73.83
2019-04-07T20:52:25.006Z,74.47
2019-04-07T20:55:19.504Z,74.68
2019-04-07T20:58:16.263Z,74.44
2019-04-07T21:01:04.631Z,74.44
2019-04-07T21:04:04.505Z,74.17
2019-04-07T21:06:54.975Z,74.17
2019-04-07T21:09:41.993Z,75.09
2019-04-07T21:12:31.064Z,74.90
2019-04-07T21:15:31.142Z,75.07
2019-04-07T21:18:39.128Z,75.07
2019-04-07T21:21:29.184Z,75.54
2019-04-07T21:24:21.804Z,75.70
2019-04-07T21:26:57.960Z,75.96
2019-04-07T21:29:45.861Z,76.01
2019-04-07T21:32:27.191Z,76.38
2019-04-07T21:35:25.925Z,76.89
2019-04-07T21:38:11.208Z,76.51
2019-04-07T21:40:58.020Z,76.30
2019-04-07T21:43:30.139Z,76.12
2019-04-07T21:46:22.438Z,75.97
2019-04-07T21:49:10.724Z,75.83
2019-04-07T21:52:00.110Z,75.80
2019-04-07T21:55:06.003Z,75.97
2019-04-07T21:57:41.751Z,75.47
2019-04-07T22:00:31.630Z,75.40
2019-04-07T22:03:22.238Z,75.88
2019-04-07T22:06:07.389Z,75.93
2019-04-07T22:08:48.343Z,75.79
2019-04-07T22:11:15.637Z,75.79
2019-04-07T22:13:42.963Z,76.57
2019-04-07T22:16:10.277Z,76.42
2019-04-07T22:18:39.207Z,76.46
2019-04-07T22:21:07.654Z,76.34
2019-04-07T22:23:35.059Z,76.08
2019-04-07T22:26:02.559Z,76.02
2019-04-07T22:28:30.346Z,75.76
2019-04-07T22:30:59.357Z,75.76
2019-04-07T22:33:30.123Z,75.71
2019-04-07T22:35:55.980Z,75.28
2019-04-07T22:38:23.800Z,74.92
2019-04-07T22:40:52.149Z,75.20
2019-04-07T22:43:20.018Z,75.77
2019-04-07T22:45:58.843Z,75.77
2019-04-07T22:48:18.371Z,75.32
2019-04-07T22:50:48.044Z,75.12
2019-04-07T22:53:15.362Z,74.73
2019-04-07T22:55:42.572Z,74.97
2019-04-07T22:58:09.829Z,74.95
2019-04-07T23:00:37.158Z,75.34
2019-04-07T23:03:04.577Z,74.98
2019-04-07T23:05:31.917Z,74.92
2019-04-07T23:07:59.912Z,74.66
2019-04-07T23:10:27.494Z,74.66
2019-04-07T23:12:55.259Z,74.69
2019-04-07T23:15:22.883Z,75.12
2019-04-07T23:17:50.139Z,75.07
2019-04-07T23:20:17.522Z,75.07
2019-04-07T23:22:44.801Z,75.37
2019-04-07T23:25:12.255Z,75.16
2019-04-07T23:27:39.499Z,75.15
2019-04-07T23:30:07.431Z,74.83
2019-04-07T23:32:34.678Z,74.83
2019-04-07T23:35:02.038Z,75.07
2019-04-07T23:37:29.302Z,75.47
2019-04-07T23:39:56.588Z,75.41
2019-04-07T23:42:24.250Z,75.66
2019-04-07T23:44:52.003Z,74.88
2019-04-07T23:47:19.518Z,75.38
2019-04-07T23:49:46.881Z,75.70
2019-04-07T23:52:14.559Z,74.96
2019-04-07T23:54:41.984Z,74.96
2019-04-07T23:57:09.400Z,74.72
2019-04-07T23:59:36.584Z,74.95
